createdAt,value
2022-12-31T00:01:52.854Z,3.87
2022-12-31T00:04:21.570Z,3.83
2022-12-31T00:06:50.410Z,3.80
2022-12-31T00:09:19.565Z,3.78
2022-12-31T00:11:47.773Z,3.71
2022-12-31T00:14:17.007Z,3.75
2022-12-31T00:16:47.392Z,3.74
2022-12-31T00:19:15.647Z,3.66
2022-12-31T00:21:45.292Z,3.69
2022-12-31T00:24:13.913Z,3.67
2022-12-31T00:26:42.095Z,3.64
2022-12-31T00:29:13.377Z,3.67
2022-12-31T00:31:42.703Z,3.71
2022-12-31T00:34:12.834Z,3.70
2022-12-31T00:36:46.098Z,3.75
2022-12-31T00:39:14.655Z,3.69
2022-12-31T00:41:44.168Z,3.62
2022-12-31T00:44:13.320Z,3.73
2022-12-31T00:49:09.228Z,3.69
2022-12-31T00:51:39.118Z,3.75
2022-12-31T00:54:10.695Z,3.66
2022-12-31T00:56:39.531Z,3.63
2022-12-31T00:59:08.060Z,3.71
2022-12-31T01:01:38.458Z,3.73
2022-12-31T01:04:09.267Z,3.75
2022-12-31T01:06:43.460Z,3.67
2022-12-31T01:09:12.564Z,3.74
2022-12-31T01:11:41.473Z,3.71
2022-12-31T01:14:11.758Z,3.71
2022-12-31T01:16:43.609Z,3.69
2022-12-31T01:19:13.704Z,3.69
2022-12-31T01:21:44.768Z,3.69
2022-12-31T01:24:13.297Z,3.71
2022-12-31T01:26:42.793Z,3.62
2022-12-31T01:29:13.934Z,3.64
2022-12-31T01:31:42.623Z,3.71
2022-12-31T01:34:11.420Z,3.64
2022-12-31T01:36:41.951Z,3.59
2022-12-31T01:39:13.180Z,3.69
2022-12-31T01:41:44.634Z,3.63
2022-12-31T01:44:50.560Z,3.66
2022-12-31T01:47:23.365Z,3.63
2022-12-31T01:50:00.039Z,3.77
2022-12-31T01:52:34.215Z,3.77
2022-12-31T01:55:08.855Z,3.80
2022-12-31T01:57:38.714Z,3.78
2022-12-31T02:00:10.222Z,3.73
2022-12-31T02:02:41.485Z,3.73
2022-12-31T02:05:18.472Z,3.78
2022-12-31T02:07:49.312Z,3.80
2022-12-31T02:10:20.181Z,3.77
2022-12-31T02:12:50.437Z,3.85
2022-12-31T02:15:21.009Z,3.84
2022-12-31T02:17:57.339Z,3.91
2022-12-31T02:20:43.202Z,3.93
2022-12-31T02:23:41.380Z,3.88
2022-12-31T02:26:42.676Z,3.90
2022-12-31T02:29:39.420Z,3.88
2022-12-31T02:32:15.209Z,3.87
2022-12-31T02:34:51.972Z,3.91
2022-12-31T02:37:23.923Z,3.90
2022-12-31T02:39:54.153Z,3.94
2022-12-31T02:42:23.751Z,3.85
2022-12-31T02:44:53.302Z,3.91
2022-12-31T02:47:34.969Z,3.93
2022-12-31T02:50:19.533Z,3.91
2022-12-31T02:52:58.837Z,3.93
2022-12-31T02:55:35.202Z,3.91
2022-12-31T02:58:13.901Z,3.94
2022-12-31T03:01:05.811Z,3.85
2022-12-31T03:03:38.872Z,3.85
2022-12-31T03:06:10.481Z,3.93
2022-12-31T03:08:57.498Z,3.97
2022-12-31T03:11:43.610Z,3.93
2022-12-31T03:14:12.851Z,3.98
2022-12-31T03:16:41.575Z,3.93
2022-12-31T03:19:29.102Z,3.98
2022-12-31T03:22:15.652Z,3.99
2022-12-31T03:25:01.682Z,3.97
2022-12-31T03:27:30.319Z,4.02
2022-12-31T03:29:58.967Z,3.87
2022-12-31T03:32:30.596Z,3.85
2022-12-31T03:35:00.784Z,3.83
2022-12-31T03:37:32.166Z,3.90
2022-12-31T03:40:03.055Z,3.85
2022-12-31T03:42:31.398Z,3.85
2022-12-31T03:45:01.246Z,3.91
2022-12-31T03:47:32.976Z,3.95
2022-12-31T03:50:06.584Z,3.87
2022-12-31T03:52:36.411Z,3.91
2022-12-31T03:55:05.352Z,3.98
2022-12-31T03:57:34.773Z,3.91
2022-12-31T04:00:03.646Z,3.97
2022-12-31T04:02:34.538Z,3.93
2022-12-31T04:05:05.287Z,3.94
2022-12-31T04:07:34.784Z,3.87
2022-12-31T04:10:03.988Z,3.81
2022-12-31T04:12:33.091Z,3.85
2022-12-31T04:15:01.574Z,3.87
2022-12-31T04:17:30.348Z,3.87
2022-12-31T04:19:58.732Z,3.88
2022-12-31T04:22:28.963Z,3.75
2022-12-31T04:24:57.180Z,3.73
2022-12-31T04:27:28.342Z,3.67
2022-12-31T04:29:56.906Z,3.73
2022-12-31T04:32:25.479Z,3.77
2022-12-31T04:34:53.885Z,3.78
2022-12-31T04:37:22.116Z,3.71
2022-12-31T04:39:52.201Z,3.60
2022-12-31T04:42:21.037Z,3.56
2022-12-31T04:44:49.542Z,3.56
2022-12-31T04:47:23.371Z,3.56
2022-12-31T04:49:52.815Z,3.59
2022-12-31T04:52:24.384Z,3.66
2022-12-31T04:54:54.151Z,3.69
2022-12-31T04:57:22.469Z,3.66
2022-12-31T04:59:55.977Z,3.66
2022-12-31T05:02:25.094Z,3.54
2022-12-31T05:04:53.899Z,3.60
2022-12-31T05:07:25.160Z,3.52
2022-12-31T05:09:57.865Z,3.50
2022-12-31T05:12:26.673Z,3.43
2022-12-31T05:14:54.971Z,3.40
2022-12-31T05:17:23.160Z,3.47
2022-12-31T05:19:51.706Z,3.49
2022-12-31T05:22:33.092Z,3.40
2022-12-31T05:25:04.058Z,3.42
2022-12-31T05:27:32.876Z,3.42
2022-12-31T05:30:01.475Z,3.40
2022-12-31T05:32:33.572Z,3.46
2022-12-31T05:35:06.273Z,3.50
2022-12-31T05:37:35.813Z,3.52
2022-12-31T05:40:06.777Z,3.47
2022-12-31T05:42:36.338Z,3.46
2022-12-31T05:45:04.779Z,3.50
2022-12-31T05:47:33.303Z,3.49
2022-12-31T05:50:02.220Z,3.56
2022-12-31T05:52:30.849Z,3.50
2022-12-31T05:55:00.214Z,3.57
2022-12-31T05:57:30.357Z,3.66
2022-12-31T05:59:59.477Z,3.67
2022-12-31T06:02:27.908Z,3.67
2022-12-31T06:05:01.461Z,3.62
2022-12-31T06:07:30.121Z,3.71
2022-12-31T06:09:58.662Z,3.74
2022-12-31T06:12:28.513Z,3.69
2022-12-31T06:15:00.194Z,3.70
2022-12-31T06:17:29.556Z,3.62
2022-12-31T06:19:58.560Z,3.73
2022-12-31T06:22:27.346Z,3.67
2022-12-31T06:24:56.142Z,3.69
2022-12-31T06:27:24.683Z,3.70
2022-12-31T06:29:53.060Z,3.97
2022-12-31T06:32:23.311Z,3.74
2022-12-31T06:34:51.753Z,3.67
2022-12-31T06:37:20.268Z,3.64
2022-12-31T06:39:49.360Z,3.67
2022-12-31T06:42:18.737Z,3.74
2022-12-31T06:44:47.096Z,3.80
2022-12-31T06:47:15.622Z,3.78
2022-12-31T06:49:45.764Z,3.84
2022-12-31T06:52:14.389Z,3.88
2022-12-31T06:54:45.665Z,3.88
2022-12-31T06:57:14.419Z,3.93
2022-12-31T06:59:45.020Z,3.95
2022-12-31T07:02:27.005Z,3.95
2022-12-31T07:05:15.298Z,3.90
2022-12-31T07:07:57.505Z,3.87
2022-12-31T07:10:38.099Z,3.90
2022-12-31T07:13:23.823Z,3.85
2022-12-31T07:16:04.321Z,3.83
2022-12-31T07:18:41.338Z,3.91
2022-12-31T07:21:16.203Z,3.99
2022-12-31T07:23:47.063Z,3.88
2022-12-31T07:26:27.872Z,3.95
2022-12-31T07:29:06.484Z,3.93
2022-12-31T07:31:51.947Z,4.05
2022-12-31T07:34:31.095Z,4.08
2022-12-31T07:37:06.784Z,4.11
2022-12-31T07:39:44.817Z,4.21
2022-12-31T07:42:20.477Z,4.33
2022-12-31T07:45:02.609Z,4.23
2022-12-31T07:47:34.622Z,4.19
2022-12-31T07:50:04.274Z,4.15
2022-12-31T07:52:34.903Z,4.21
2022-12-31T07:55:04.227Z,4.25
2022-12-31T07:57:42.348Z,4.32
2022-12-31T08:00:16.315Z,4.31
2022-12-31T08:03:03.093Z,4.35
2022-12-31T08:05:34.798Z,4.35
2022-12-31T08:08:15.222Z,4.39
2022-12-31T08:10:53.010Z,4.59
2022-12-31T08:13:22.376Z,4.69
2022-12-31T08:15:51.373Z,4.79
2022-12-31T08:18:20.314Z,4.88
2022-12-31T08:21:06.784Z,4.95
2022-12-31T08:23:41.811Z,5.05
2022-12-31T08:26:24.308Z,5.04
2022-12-31T08:29:02.869Z,5.04
2022-12-31T08:31:38.211Z,5.14
2022-12-31T08:34:14.545Z,5.07
2022-12-31T08:36:49.734Z,5.10
2022-12-31T08:39:33.930Z,5.45
2022-12-31T08:42:06.307Z,5.55
2022-12-31T08:44:41.376Z,5.58
2022-12-31T08:47:18.167Z,5.71
2022-12-31T08:49:47.004Z,5.62
2022-12-31T08:52:25.441Z,5.87
2022-12-31T08:54:58.237Z,5.77
2022-12-31T08:57:33.860Z,5.63
2022-12-31T09:00:09.065Z,5.71
2022-12-31T09:02:53.533Z,6.03
2022-12-31T09:05:27.175Z,6.28
2022-12-31T09:08:06.097Z,5.66
2022-12-31T09:10:44.269Z,5.98
2022-12-31T09:13:19.433Z,6.04
2022-12-31T09:15:59.747Z,6.17
2022-12-31T09:18:33.156Z,6.21
2022-12-31T09:21:02.036Z,6.32
2022-12-31T09:23:30.729Z,6.16
2022-12-31T09:26:15.687Z,6.41
2022-12-31T09:28:53.392Z,6.36
2022-12-31T09:31:32.857Z,6.24
2022-12-31T09:34:06.678Z,6.34
2022-12-31T09:36:42.911Z,6.41
2022-12-31T09:39:17.029Z,6.50
2022-12-31T09:42:12.897Z,6.42
2022-12-31T09:44:58.097Z,6.31
2022-12-31T09:47:57.777Z,6.25
2022-12-31T09:50:50.832Z,6.31
2022-12-31T09:53:38.405Z,6.24
2022-12-31T09:56:18.426Z,6.46
2022-12-31T09:58:58.631Z,6.41
2022-12-31T10:01:49.785Z,6.59
2022-12-31T10:04:57.359Z,6.71
2022-12-31T10:07:45.984Z,6.72
2022-12-31T10:10:24.013Z,6.73
2022-12-31T10:13:31.858Z,6.80
2022-12-31T10:16:43.768Z,6.86
2022-12-31T10:19:44.424Z,6.99
2022-12-31T10:22:39.585Z,7.00
2022-12-31T10:25:37.888Z,7.03
2022-12-31T10:28:20.421Z,6.99
2022-12-31T10:31:04.646Z,7.14
2022-12-31T10:33:50.583Z,7.08
2022-12-31T10:36:29.067Z,7.10
2022-12-31T10:39:12.837Z,7.13
2022-12-31T10:42:00.372Z,7.11
2022-12-31T10:45:08.440Z,7.06
2022-12-31T10:48:16.271Z,7.00
2022-12-31T10:51:07.871Z,7.00
2022-12-31T10:54:26.034Z,7.14
2022-12-31T10:57:32.566Z,6.94
2022-12-31T11:00:12.695Z,6.96
2022-12-31T11:03:29.552Z,6.80
2022-12-31T11:06:48.322Z,6.93
2022-12-31T11:09:56.112Z,6.87
2022-12-31T11:12:58.321Z,6.79
2022-12-31T11:15:50.274Z,6.79
2022-12-31T11:18:28.357Z,6.90
2022-12-31T11:21:11.771Z,6.72
2022-12-31T11:23:56.594Z,6.71
2022-12-31T11:26:36.411Z,6.64
2022-12-31T11:29:25.678Z,6.80
2022-12-31T11:32:12.043Z,6.75
2022-12-31T11:35:04.646Z,6.76
2022-12-31T11:37:42.058Z,6.83
2022-12-31T11:40:41.441Z,6.85
2022-12-31T11:43:23.835Z,6.90
2022-12-31T11:46:26.789Z,6.97
2022-12-31T11:49:16.619Z,6.99
2022-12-31T11:52:02.368Z,6.93
2022-12-31T11:54:56.855Z,6.86
2022-12-31T11:57:34.169Z,7.00
2022-12-31T12:00:09.755Z,7.01
2022-12-31T12:02:44.371Z,6.96
2022-12-31T12:05:16.880Z,6.99
2022-12-31T12:07:45.752Z,7.11
2022-12-31T12:10:29.128Z,7.10
2022-12-31T12:13:12.709Z,7.18
2022-12-31T12:15:46.181Z,7.23
2022-12-31T12:18:26.071Z,7.41
2022-12-31T12:21:02.320Z,7.35
2022-12-31T12:23:32.879Z,7.35
2022-12-31T12:26:02.690Z,7.44
2022-12-31T12:28:44.428Z,7.21
2022-12-31T12:31:21.233Z,7.32
2022-12-31T12:33:52.583Z,7.42
2022-12-31T12:36:22.584Z,7.30
2022-12-31T12:39:03.102Z,7.28
2022-12-31T12:41:31.846Z,7.40
2022-12-31T12:44:06.674Z,7.35
2022-12-31T12:46:42.591Z,7.45
2022-12-31T12:49:24.069Z,7.41
2022-12-31T12:52:16.966Z,7.36
2022-12-31T12:55:01.272Z,7.56
2022-12-31T12:57:36.113Z,7.44
2022-12-31T13:00:17.273Z,7.61
2022-12-31T13:03:19.891Z,7.75
2022-12-31T13:06:03.193Z,7.83
2022-12-31T13:08:45.617Z,7.90
2022-12-31T13:11:30.587Z,7.82
2022-12-31T13:14:08.692Z,7.93
2022-12-31T13:16:47.429Z,7.89
2022-12-31T13:19:21.276Z,8.02
2022-12-31T13:21:55.763Z,7.99
2022-12-31T13:24:36.780Z,7.94
2022-12-31T13:27:14.279Z,7.92
2022-12-31T13:29:45.569Z,7.94
2022-12-31T13:32:21.074Z,7.89
2022-12-31T13:34:53.328Z,7.97
2022-12-31T13:37:29.116Z,7.94
2022-12-31T13:40:02.920Z,7.96
2022-12-31T13:42:40.688Z,7.94
2022-12-31T13:45:14.782Z,7.99
2022-12-31T13:47:53.072Z,7.86
2022-12-31T13:50:26.494Z,7.93
2022-12-31T13:52:59.764Z,7.89
2022-12-31T13:55:33.962Z,7.82
2022-12-31T13:58:07.907Z,7.86
2022-12-31T14:00:41.533Z,7.78
2022-12-31T14:03:19.933Z,7.86
2022-12-31T14:05:55.125Z,7.90
2022-12-31T14:08:23.809Z,7.92
2022-12-31T14:11:04.255Z,7.81
2022-12-31T14:13:44.872Z,7.82
2022-12-31T14:16:22.484Z,7.93
2022-12-31T14:19:02.234Z,7.86
2022-12-31T14:21:36.364Z,7.90
2022-12-31T14:24:11.706Z,7.81
2022-12-31T14:26:43.226Z,7.89
2022-12-31T14:29:22.207Z,7.90
2022-12-31T14:32:15.525Z,7.89
2022-12-31T14:34:57.239Z,7.89
2022-12-31T14:37:34.421Z,7.83
2022-12-31T14:40:18.704Z,7.82
2022-12-31T14:42:56.974Z,7.71
2022-12-31T14:45:36.546Z,7.72
2022-12-31T14:48:21.569Z,7.73
2022-12-31T14:50:56.129Z,7.66
2022-12-31T14:53:26.698Z,7.63
2022-12-31T14:56:02.058Z,7.63
2022-12-31T14:58:36.312Z,7.63
2022-12-31T15:01:09.030Z,7.55
2022-12-31T15:03:45.037Z,7.50
2022-12-31T15:06:36.353Z,7.52
2022-12-31T15:09:12.749Z,7.47
2022-12-31T15:11:52.657Z,7.35
2022-12-31T15:14:44.187Z,7.38
2022-12-31T15:17:27.697Z,7.28
2022-12-31T15:20:35.457Z,7.20
2022-12-31T15:23:15.906Z,7.08
2022-12-31T15:25:49.624Z,7.07
2022-12-31T15:28:31.771Z,7.07
2022-12-31T15:31:05.783Z,7.21
2022-12-31T15:33:40.388Z,7.10
2022-12-31T15:36:19.286Z,7.23
2022-12-31T15:38:54.067Z,7.10
2022-12-31T15:41:37.470Z,7.01
2022-12-31T15:44:15.023Z,7.06
2022-12-31T15:46:44.630Z,7.06
2022-12-31T15:49:18.346Z,7.04
2022-12-31T15:51:51.803Z,7.14
2022-12-31T15:54:28.963Z,7.14
2022-12-31T15:56:57.755Z,7.13
2022-12-31T15:59:28.399Z,7.24
2022-12-31T16:01:58.565Z,7.20
2022-12-31T16:04:29.969Z,7.08
2022-12-31T16:07:01.455Z,7.13
2022-12-31T16:09:37.012Z,7.13
2022-12-31T16:12:13.011Z,7.06
2022-12-31T16:14:45.952Z,7.04
2022-12-31T16:17:29.594Z,6.99
2022-12-31T16:19:59.862Z,6.93
2022-12-31T16:22:31.240Z,6.89
2022-12-31T16:25:29.622Z,6.83
2022-12-31T16:27:52.148Z,6.79
2022-12-31T16:30:23.326Z,6.72
2022-12-31T16:32:53.357Z,6.52
2022-12-31T16:35:26.464Z,6.44
2022-12-31T16:38:12.371Z,6.36
2022-12-31T16:40:43.596Z,6.44
2022-12-31T16:43:28.305Z,6.52
2022-12-31T16:45:59.127Z,6.39
2022-12-31T16:48:28.086Z,6.27
2022-12-31T16:50:58.120Z,5.93
2022-12-31T16:53:29.982Z,5.93
2022-12-31T16:56:04.746Z,6.07
2022-12-31T16:58:35.856Z,5.98
2022-12-31T17:01:14.419Z,6.04
2022-12-31T17:03:47.673Z,5.97
2022-12-31T17:06:18.109Z,5.90
2022-12-31T17:08:50.601Z,6.07
2022-12-31T17:11:24.116Z,6.00
2022-12-31T17:14:02.003Z,6.24
2022-12-31T17:16:30.605Z,6.44
2022-12-31T17:18:59.487Z,6.14
2022-12-31T17:21:30.010Z,6.17
2022-12-31T17:24:04.428Z,6.21
2022-12-31T17:26:38.464Z,6.11
2022-12-31T17:29:08.806Z,6.08
2022-12-31T17:31:38.499Z,6.06
2022-12-31T17:34:24.316Z,6.10
2022-12-31T17:37:05.271Z,6.11
2022-12-31T17:39:51.100Z,6.17
2022-12-31T17:42:29.153Z,6.13
2022-12-31T17:45:03.330Z,6.03
2022-12-31T17:47:37.347Z,6.03
2022-12-31T17:50:17.579Z,6.10
2022-12-31T17:52:46.427Z,6.10
2022-12-31T17:55:15.000Z,6.10
2022-12-31T17:57:52.270Z,6.01
2022-12-31T18:00:22.760Z,6.01
2022-12-31T18:02:51.978Z,5.98
2022-12-31T18:05:25.596Z,6.04
2022-12-31T18:07:54.709Z,5.74
2022-12-31T18:10:25.518Z,5.73
2022-12-31T18:12:55.743Z,5.93
2022-12-31T18:15:26.469Z,5.87
2022-12-31T18:17:54.994Z,5.94
2022-12-31T18:20:25.039Z,6.03
2022-12-31T18:22:53.993Z,6.16
2022-12-31T18:25:24.420Z,6.21
2022-12-31T18:27:54.848Z,6.24
2022-12-31T18:30:23.735Z,6.21
2022-12-31T18:32:52.404Z,6.14
2022-12-31T18:38:15.936Z,6.20
2022-12-31T18:40:49.960Z,6.21
2022-12-31T18:43:22.673Z,6.28
2022-12-31T18:45:53.339Z,6.50
2022-12-31T18:48:21.653Z,6.52
2022-12-31T18:50:50.567Z,6.50
2022-12-31T18:53:22.726Z,6.52
2022-12-31T18:55:53.847Z,6.52
2022-12-31T18:58:26.309Z,6.55
2022-12-31T19:00:54.634Z,6.64
2022-12-31T19:03:28.374Z,6.61
2022-12-31T19:05:56.669Z,6.62
2022-12-31T19:08:25.021Z,6.65
2022-12-31T19:10:54.126Z,6.72
2022-12-31T19:13:25.100Z,6.79
2022-12-31T19:16:01.187Z,6.85
2022-12-31T19:18:29.476Z,6.90
2022-12-31T19:20:58.180Z,6.89
2022-12-31T19:23:26.891Z,6.89
2022-12-31T19:25:55.978Z,6.89
2022-12-31T19:28:27.982Z,6.87
2022-12-31T19:30:56.430Z,6.86
2022-12-31T19:33:24.794Z,6.82
2022-12-31T19:35:53.422Z,6.76
2022-12-31T19:38:24.339Z,6.75
2022-12-31T19:40:54.401Z,6.79
2022-12-31T19:43:24.871Z,6.77
2022-12-31T19:45:55.019Z,5.96
2022-12-31T19:48:32.346Z,5.65
2022-12-31T19:51:02.217Z,5.58
2022-12-31T19:53:30.658Z,5.60
2022-12-31T19:56:02.448Z,5.50
2022-12-31T19:58:31.188Z,5.52
2022-12-31T20:01:03.099Z,5.69
2022-12-31T20:03:32.934Z,5.74
2022-12-31T20:06:07.555Z,5.71
2022-12-31T20:08:36.676Z,5.70
2022-12-31T20:11:13.014Z,5.70
2022-12-31T20:13:42.349Z,5.67
2022-12-31T20:16:15.610Z,5.71
2022-12-31T20:18:48.387Z,5.65
2022-12-31T20:21:19.382Z,5.62
2022-12-31T20:23:48.901Z,5.66
2022-12-31T20:26:17.985Z,5.58
2022-12-31T20:28:48.134Z,5.55
2022-12-31T20:31:20.911Z,5.42
2022-12-31T20:33:49.548Z,5.34
2022-12-31T20:36:19.237Z,5.21
2022-12-31T20:38:48.547Z,5.35
2022-12-31T20:41:18.410Z,5.46
2022-12-31T20:43:47.609Z,5.63
2022-12-31T20:46:19.891Z,5.59
2022-12-31T20:48:49.693Z,5.62
2022-12-31T20:51:19.721Z,5.49
2022-12-31T20:53:49.523Z,5.52
2022-12-31T20:56:18.729Z,5.59
2022-12-31T20:58:48.401Z,5.58
2022-12-31T21:01:20.856Z,5.58
2022-12-31T21:04:04.865Z,5.50
2022-12-31T21:06:36.568Z,5.58
2022-12-31T21:09:07.299Z,5.66
2022-12-31T21:11:53.493Z,5.70
2022-12-31T21:14:22.710Z,5.63
2022-12-31T21:16:52.302Z,5.71
2022-12-31T21:19:20.815Z,5.70
2022-12-31T21:21:49.848Z,5.27
2022-12-31T21:24:23.624Z,4.92
2022-12-31T21:26:56.179Z,5.00
2022-12-31T21:29:24.509Z,5.11
2022-12-31T21:31:55.048Z,5.21
2022-12-31T21:34:23.528Z,5.29
2022-12-31T21:36:53.585Z,5.46
2022-12-31T21:39:22.477Z,5.55
2022-12-31T21:41:53.507Z,5.10
2022-12-31T21:44:28.469Z,4.54
2022-12-31T21:47:35.354Z,4.67
2022-12-31T21:50:06.212Z,5.12
2022-12-31T21:52:35.875Z,5.04
2022-12-31T21:55:23.261Z,5.07
2022-12-31T21:58:24.899Z,5.11
2022-12-31T22:00:58.839Z,5.11
2022-12-31T22:03:32.035Z,5.08
2022-12-31T22:06:02.943Z,5.02
2022-12-31T22:08:32.156Z,5.02
2022-12-31T22:11:00.848Z,5.00
2022-12-31T22:13:29.759Z,4.87
2022-12-31T22:16:04.843Z,4.84
2022-12-31T22:18:41.485Z,4.87
2022-12-31T22:21:18.414Z,4.85
2022-12-31T22:23:49.472Z,4.81
2022-12-31T22:26:19.978Z,4.74
2022-12-31T22:28:48.862Z,4.41
2022-12-31T22:31:20.643Z,4.15
2022-12-31T22:33:50.496Z,4.15
2022-12-31T22:36:21.484Z,4.26
2022-12-31T22:38:51.403Z,4.41
2022-12-31T22:41:21.988Z,4.26
2022-12-31T22:43:55.989Z,4.32
2022-12-31T22:46:30.821Z,4.23
2022-12-31T22:49:03.781Z,3.59
2022-12-31T22:51:54.723Z,3.27
2022-12-31T22:54:22.899Z,3.39
2022-12-31T22:56:51.236Z,3.60
2022-12-31T22:59:19.831Z,3.74
2022-12-31T23:01:48.754Z,3.69
2022-12-31T23:04:18.370Z,3.67
2022-12-31T23:06:47.220Z,3.56
2022-12-31T23:09:35.592Z,3.43
2022-12-31T23:12:06.890Z,3.44
2022-12-31T23:14:53.214Z,3.54
2022-12-31T23:17:43.508Z,3.56
2022-12-31T23:20:33.682Z,3.50
2022-12-31T23:23:11.806Z,3.43
2022-12-31T23:25:42.697Z,3.22
2022-12-31T23:28:13.817Z,3.12
2022-12-31T23:30:43.447Z,3.11
2022-12-31T23:33:16.146Z,3.18
2022-12-31T23:35:46.270Z,3.11
2022-12-31T23:38:17.140Z,3.11
2022-12-31T23:40:45.809Z,3.15
2022-12-31T23:43:20.832Z,3.19
2022-12-31T23:45:50.354Z,3.13
2022-12-31T23:48:18.696Z,3.15
2022-12-31T23:50:54.000Z,3.13
2022-12-31T23:53:23.288Z,3.01
2022-12-31T23:55:55.937Z,3.19
2022-12-31T23:58:24.539Z,3.62
